sensor_id;sensor_type;location;lat;lon;timestamp;temperature;humidity
3548;DHT22;1788;49.400;11.092;2022-09-13T00:01:34;17.30;60.60
3548;DHT22;1788;49.400;11.092;2022-09-13T00:04:01;17.20;60.60
3548;DHT22;1788;49.400;11.092;2022-09-13T00:06:28;17.20;60.60
3548;DHT22;1788;49.400;11.092;2022-09-13T00:08:55;17.20;60.60
3548;DHT22;1788;49.400;11.092;2022-09-13T00:11:22;17.10;60.60
3548;DHT22;1788;49.400;11.092;2022-09-13T00:13:48;17.10;60.50
3548;DHT22;1788;49.400;11.092;2022-09-13T00:16:15;17.00;60.40
3548;DHT22;1788;49.400;11.092;2022-09-13T00:18:42;17.00;60.60
3548;DHT22;1788;49.400;11.092;2022-09-13T00:21:10;16.90;60.40
3548;DHT22;1788;49.400;11.092;2022-09-13T00:23:35;16.90;60.40
3548;DHT22;1788;49.400;11.092;2022-09-13T00:26:03;16.90;60.60
3548;DHT22;1788;49.400;11.092;2022-09-13T00:28:28;16.90;60.60
3548;DHT22;1788;49.400;11.092;2022-09-13T00:30:58;16.80;60.70
3548;DHT22;1788;49.400;11.092;2022-09-13T00:33:22;16.80;60.70
3548;DHT22;1788;49.400;11.092;2022-09-13T00:35:49;16.70;61.10
3548;DHT22;1788;49.400;11.092;2022-09-13T00:38:16;16.70;60.70
3548;DHT22;1788;49.400;11.092;2022-09-13T00:40:43;16.70;60.80
3548;DHT22;1788;49.400;11.092;2022-09-13T00:45:36;16.60;60.80
3548;DHT22;1788;49.400;11.092;2022-09-13T00:48:04;16.60;60.90
3548;DHT22;1788;49.400;11.092;2022-09-13T00:50:30;16.60;60.90
3548;DHT22;1788;49.400;11.092;2022-09-13T00:52:58;16.50;60.90
3548;DHT22;1788;49.400;11.092;2022-09-13T00:55:26;16.50;60.90
3548;DHT22;1788;49.400;11.092;2022-09-13T00:57:51;16.50;60.90
3548;DHT22;1788;49.400;11.092;2022-09-13T01:00:17;16.50;60.90
3548;DHT22;1788;49.400;11.092;2022-09-13T01:05:12;16.40;61.10
3548;DHT22;1788;49.400;11.092;2022-09-13T01:07:38;16.40;61.10
3548;DHT22;1788;49.400;11.092;2022-09-13T01:10:05;16.40;61.30
3548;DHT22;1788;49.400;11.092;2022-09-13T01:12:34;16.40;61.30
3548;DHT22;1788;49.400;11.092;2022-09-13T01:14:59;16.40;61.40
3548;DHT22;1788;49.400;11.092;2022-09-13T01:17:26;16.40;61.50
3548;DHT22;1788;49.400;11.092;2022-09-13T01:19:52;16.40;61.60
3548;DHT22;1788;49.400;11.092;2022-09-13T01:29:44;16.40;61.70
3548;DHT22;1788;49.400;11.092;2022-09-13T01:34:41;16.40;61.70
3548;DHT22;1788;49.400;11.092;2022-09-13T01:37:04;16.40;61.80
3548;DHT22;1788;49.400;11.092;2022-09-13T01:41:57;16.30;61.80
3548;DHT22;1788;49.400;11.092;2022-09-13T01:46:49;16.30;61.70
3548;DHT22;1788;49.400;11.092;2022-09-13T01:56:36;16.20;61.40
3548;DHT22;1788;49.400;11.092;2022-09-13T02:01:29;16.10;61.40
3548;DHT22;1788;49.400;11.092;2022-09-13T02:08:50;16.00;61.70
3548;DHT22;1788;49.400;11.092;2022-09-13T02:11:16;16.00;61.20
3548;DHT22;1788;49.400;11.092;2022-09-13T02:13:45;16.00;61.30
3548;DHT22;1788;49.400;11.092;2022-09-13T02:16:10;16.00;61.40
3548;DHT22;1788;49.400;11.092;2022-09-13T02:21:05;16.00;61.20
3548;DHT22;1788;49.400;11.092;2022-09-13T02:23:31;15.90;61.10
3548;DHT22;1788;49.400;11.092;2022-09-13T02:25:55;15.90;61.10
3548;DHT22;1788;49.400;11.092;2022-09-13T02:28:23;15.90;61.20
3548;DHT22;1788;49.400;11.092;2022-09-13T02:30:50;15.80;61.20
3548;DHT22;1788;49.400;11.092;2022-09-13T02:33:17;15.80;61.20
3548;DHT22;1788;49.400;11.092;2022-09-13T02:35:44;15.80;61.20
3548;DHT22;1788;49.400;11.092;2022-09-13T02:38:10;15.80;61.40
3548;DHT22;1788;49.400;11.092;2022-09-13T02:40:38;15.70;61.40
3548;DHT22;1788;49.400;11.092;2022-09-13T02:43:04;15.70;61.60
3548;DHT22;1788;49.400;11.092;2022-09-13T02:45:31;15.60;61.50
3548;DHT22;1788;49.400;11.092;2022-09-13T02:47:57;15.60;61.60
3548;DHT22;1788;49.400;11.092;2022-09-13T03:00:09;15.60;61.40
3548;DHT22;1788;49.400;11.092;2022-09-13T03:02:36;15.60;61.40
3548;DHT22;1788;49.400;11.092;2022-09-13T03:05:02;15.60;61.40
3548;DHT22;1788;49.400;11.092;2022-09-13T03:07:29;15.60;61.40
3548;DHT22;1788;49.400;11.092;2022-09-13T03:29:33;15.30;61.80
3548;DHT22;1788;49.400;11.092;2022-09-13T03:41:47;15.40;62.50
3548;DHT22;1788;49.400;11.092;2022-09-13T03:44:13;15.40;61.80
3548;DHT22;1788;49.400;11.092;2022-09-13T03:46:40;15.40;62.00
3548;DHT22;1788;49.400;11.092;2022-09-13T03:49:08;15.30;61.80
3548;DHT22;1788;49.400;11.092;2022-09-13T03:51:33;15.30;61.80
3548;DHT22;1788;49.400;11.092;2022-09-13T03:56:26;15.30;61.80
3548;DHT22;1788;49.400;11.092;2022-09-13T03:58:54;15.30;62.00
3548;DHT22;1788;49.400;11.092;2022-09-13T04:01:21;15.30;62.00
3548;DHT22;1788;49.400;11.092;2022-09-13T04:03:48;15.20;62.20
3548;DHT22;1788;49.400;11.092;2022-09-13T04:06:14;15.20;62.20
3548;DHT22;1788;49.400;11.092;2022-09-13T04:08:41;15.20;62.20
3548;DHT22;1788;49.400;11.092;2022-09-13T04:11:08;15.20;62.10
3548;DHT22;1788;49.400;11.092;2022-09-13T04:13:35;15.20;62.20
3548;DHT22;1788;49.400;11.092;2022-09-13T04:16:03;15.30;62.20
3548;DHT22;1788;49.400;11.092;2022-09-13T04:18:29;15.30;62.20
3548;DHT22;1788;49.400;11.092;2022-09-13T04:20:57;15.30;62.20
3548;DHT22;1788;49.400;11.092;2022-09-13T04:23:23;15.30;62.20
3548;DHT22;1788;49.400;11.092;2022-09-13T04:25:49;15.30;63.00
3548;DHT22;1788;49.400;11.092;2022-09-13T04:28:17;15.30;62.20
3548;DHT22;1788;49.400;11.092;2022-09-13T04:30:44;15.30;62.20
3548;DHT22;1788;49.400;11.092;2022-09-13T04:33:11;15.30;62.20
3548;DHT22;1788;49.400;11.092;2022-09-13T04:35:37;15.30;62.20
3548;DHT22;1788;49.400;11.092;2022-09-13T04:38:04;15.30;62.10
3548;DHT22;1788;49.400;11.092;2022-09-13T04:40:30;15.30;62.20
3548;DHT22;1788;49.400;11.092;2022-09-13T04:42:58;15.30;62.20
3548;DHT22;1788;49.400;11.092;2022-09-13T04:45:24;15.30;62.20
3548;DHT22;1788;49.400;11.092;2022-09-13T04:47:52;15.20;62.20
3548;DHT22;1788;49.400;11.092;2022-09-13T04:50:19;15.20;62.20
3548;DHT22;1788;49.400;11.092;2022-09-13T04:52:46;15.20;62.30
3548;DHT22;1788;49.400;11.092;2022-09-13T04:55:12;15.20;62.20
3548;DHT22;1788;49.400;11.092;2022-09-13T05:00:06;15.20;62.30
3548;DHT22;1788;49.400;11.092;2022-09-13T05:02:33;15.20;62.40
3548;DHT22;1788;49.400;11.092;2022-09-13T05:05:00;15.20;62.50
3548;DHT22;1788;49.400;11.092;2022-09-13T05:07:26;15.20;62.50
3548;DHT22;1788;49.400;11.092;2022-09-13T05:09:54;15.20;62.70
3548;DHT22;1788;49.400;11.092;2022-09-13T05:12:20;15.20;62.70
3548;DHT22;1788;49.400;11.092;2022-09-13T05:14:47;15.20;62.70
3548;DHT22;1788;49.400;11.092;2022-09-13T05:17:13;15.20;62.70
3548;DHT22;1788;49.400;11.092;2022-09-13T05:19:40;15.20;62.70
3548;DHT22;1788;49.400;11.092;2022-09-13T05:22:07;15.20;62.80
3548;DHT22;1788;49.400;11.092;2022-09-13T05:24:33;15.30;62.90
3548;DHT22;1788;49.400;11.092;2022-09-13T05:27:00;15.30;63.00
3548;DHT22;1788;49.400;11.092;2022-09-13T05:29:27;15.30;63.20
3548;DHT22;1788;49.400;11.092;2022-09-13T05:31:54;15.30;63.20
3548;DHT22;1788;49.400;11.092;2022-09-13T05:34:21;15.30;63.30
3548;DHT22;1788;49.400;11.092;2022-09-13T05:36:48;15.40;63.70
3548;DHT22;1788;49.400;11.092;2022-09-13T05:39:15;15.40;63.90
3548;DHT22;1788;49.400;11.092;2022-09-13T05:41:42;15.50;64.20
3548;DHT22;1788;49.400;11.092;2022-09-13T05:44:08;15.50;64.30
3548;DHT22;1788;49.400;11.092;2022-09-13T05:46:35;15.60;64.50
3548;DHT22;1788;49.400;11.092;2022-09-13T05:49:02;15.70;64.60
3548;DHT22;1788;49.400;11.092;2022-09-13T05:51:29;15.80;64.70
3548;DHT22;1788;49.400;11.092;2022-09-13T05:53:56;16.00;65.10
3548;DHT22;1788;49.400;11.092;2022-09-13T05:56:24;15.90;64.90
3548;DHT22;1788;49.400;11.092;2022-09-13T05:58:51;16.10;65.10
3548;DHT22;1788;49.400;11.092;2022-09-13T06:01:18;16.10;65.10
3548;DHT22;1788;49.400;11.092;2022-09-13T06:03:47;16.20;65.20
3548;DHT22;1788;49.400;11.092;2022-09-13T06:06:10;16.30;65.40
3548;DHT22;1788;49.400;11.092;2022-09-13T06:08:37;16.40;65.40
3548;DHT22;1788;49.400;11.092;2022-09-13T06:13:32;16.60;65.40
3548;DHT22;1788;49.400;11.092;2022-09-13T06:15:59;16.70;65.40
3548;DHT22;1788;49.400;11.092;2022-09-13T06:18:25;16.70;65.40
3548;DHT22;1788;49.400;11.092;2022-09-13T06:23:18;16.80;65.60
3548;DHT22;1788;49.400;11.092;2022-09-13T06:25:45;16.90;65.80
3548;DHT22;1788;49.400;11.092;2022-09-13T06:28:12;16.90;65.80
3548;DHT22;1788;49.400;11.092;2022-09-13T06:30:39;16.90;65.60
3548;DHT22;1788;49.400;11.092;2022-09-13T06:33:06;16.90;65.60
3548;DHT22;1788;49.400;11.092;2022-09-13T06:35:35;17.00;65.90
3548;DHT22;1788;49.400;11.092;2022-09-13T06:38:01;16.90;65.80
3548;DHT22;1788;49.400;11.092;2022-09-13T06:40:27;17.00;65.90
3548;DHT22;1788;49.400;11.092;2022-09-13T06:42:55;17.10;66.10
3548;DHT22;1788;49.400;11.092;2022-09-13T06:45:21;17.10;66.00
3548;DHT22;1788;49.400;11.092;2022-09-13T06:47:49;17.20;65.90
3548;DHT22;1788;49.400;11.092;2022-09-13T06:50:16;17.20;65.90
3548;DHT22;1788;49.400;11.092;2022-09-13T06:52:43;17.30;65.90
3548;DHT22;1788;49.400;11.092;2022-09-13T06:55:10;17.40;65.80
3548;DHT22;1788;49.400;11.092;2022-09-13T06:57:37;17.40;65.80
3548;DHT22;1788;49.400;11.092;2022-09-13T07:00:04;17.50;65.90
3548;DHT22;1788;49.400;11.092;2022-09-13T07:02:30;17.50;65.80
3548;DHT22;1788;49.400;11.092;2022-09-13T07:04:57;17.60;65.80
3548;DHT22;1788;49.400;11.092;2022-09-13T07:07:24;17.70;65.70
3548;DHT22;1788;49.400;11.092;2022-09-13T07:09:50;17.80;65.80
3548;DHT22;1788;49.400;11.092;2022-09-13T07:12:19;17.90;66.50
3548;DHT22;1788;49.400;11.092;2022-09-13T07:14:46;17.90;65.60
3548;DHT22;1788;49.400;11.092;2022-09-13T07:17:13;17.90;65.60
3548;DHT22;1788;49.400;11.092;2022-09-13T07:19:40;17.90;65.50
3548;DHT22;1788;49.400;11.092;2022-09-13T07:22:06;18.00;65.50
3548;DHT22;1788;49.400;11.092;2022-09-13T07:24:33;18.00;65.30
3548;DHT22;1788;49.400;11.092;2022-09-13T07:26:59;18.10;65.30
3548;DHT22;1788;49.400;11.092;2022-09-13T07:29:26;18.10;65.10
3548;DHT22;1788;49.400;11.092;2022-09-13T07:31:54;18.20;65.20
3548;DHT22;1788;49.400;11.092;2022-09-13T07:34:22;18.30;65.00
3548;DHT22;1788;49.400;11.092;2022-09-13T07:36:47;18.30;65.00
3548;DHT22;1788;49.400;11.092;2022-09-13T07:39:15;18.40;65.00
3548;DHT22;1788;49.400;11.092;2022-09-13T07:41:42;18.50;64.90
3548;DHT22;1788;49.400;11.092;2022-09-13T07:44:09;18.50;64.90
3548;DHT22;1788;49.400;11.092;2022-09-13T07:46:36;18.50;64.60
3548;DHT22;1788;49.400;11.092;2022-09-13T07:49:02;18.60;64.60
3548;DHT22;1788;49.400;11.092;2022-09-13T07:51:30;18.70;64.50
3548;DHT22;1788;49.400;11.092;2022-09-13T07:53:57;18.80;64.30
3548;DHT22;1788;49.400;11.092;2022-09-13T07:56:24;18.70;64.20
3548;DHT22;1788;49.400;11.092;2022-09-13T07:58:50;18.80;64.10
3548;DHT22;1788;49.400;11.092;2022-09-13T08:01:17;18.80;64.10
3548;DHT22;1788;49.400;11.092;2022-09-13T08:03:44;18.90;64.50
3548;DHT22;1788;49.400;11.092;2022-09-13T08:06:11;18.90;64.10
3548;DHT22;1788;49.400;11.092;2022-09-13T08:08:38;19.00;64.00
3548;DHT22;1788;49.400;11.092;2022-09-13T08:11:05;19.00;63.90
3548;DHT22;1788;49.400;11.092;2022-09-13T08:13:32;19.10;64.60
3548;DHT22;1788;49.400;11.092;2022-09-13T08:18:27;19.20;63.10
3548;DHT22;1788;49.400;11.092;2022-09-13T08:20:55;19.20;63.70
3548;DHT22;1788;49.400;11.092;2022-09-13T08:23:21;19.30;63.60
3548;DHT22;1788;49.400;11.092;2022-09-13T08:25:48;19.30;63.60
3548;DHT22;1788;49.400;11.092;2022-09-13T08:28:15;19.40;63.60
3548;DHT22;1788;49.400;11.092;2022-09-13T08:30:41;19.40;63.40
3548;DHT22;1788;49.400;11.092;2022-09-13T08:33:09;19.60;64.10
3548;DHT22;1788;49.400;11.092;2022-09-13T08:35:35;19.60;63.30
3548;DHT22;1788;49.400;11.092;2022-09-13T08:38:03;19.60;63.00
3548;DHT22;1788;49.400;11.092;2022-09-13T08:40:31;19.70;62.90
3548;DHT22;1788;49.400;11.092;2022-09-13T08:45:23;19.90;62.60
3548;DHT22;1788;49.400;11.092;2022-09-13T08:47:52;20.10;62.60
3548;DHT22;1788;49.400;11.092;2022-09-13T08:50:20;20.20;62.50
3548;DHT22;1788;49.400;11.092;2022-09-13T08:57:41;20.80;61.70
3548;DHT22;1788;49.400;11.092;2022-09-13T09:00:10;21.00;61.40
3548;DHT22;1788;49.400;11.092;2022-09-13T09:14:45;21.70;59.70
3548;DHT22;1788;49.400;11.092;2022-09-13T09:19:39;21.80;59.20
3548;DHT22;1788;49.400;11.092;2022-09-13T09:22:04;21.80;59.10
3548;DHT22;1788;49.400;11.092;2022-09-13T09:24:33;21.80;59.00
3548;DHT22;1788;49.400;11.092;2022-09-13T09:26:58;21.60;58.70
3548;DHT22;1788;49.400;11.092;2022-09-13T09:29:26;21.60;58.70
3548;DHT22;1788;49.400;11.092;2022-09-13T09:39:13;21.40;59.10
3548;DHT22;1788;49.400;11.092;2022-09-13T09:41:40;21.30;59.00
3548;DHT22;1788;49.400;11.092;2022-09-13T09:44:13;21.40;59.00
3548;DHT22;1788;49.400;11.092;2022-09-13T09:46:35;21.40;58.50
3548;DHT22;1788;49.400;11.092;2022-09-13T09:51:27;21.50;58.60
3548;DHT22;1788;49.400;11.092;2022-09-13T09:53:56;21.40;58.60
3548;DHT22;1788;49.400;11.092;2022-09-13T09:56:22;21.40;58.30
3548;DHT22;1788;49.400;11.092;2022-09-13T09:58:47;21.30;58.20
3548;DHT22;1788;49.400;11.092;2022-09-13T10:01:15;21.30;58.40
3548;DHT22;1788;49.400;11.092;2022-09-13T10:03:40;21.40;58.50
3548;DHT22;1788;49.400;11.092;2022-09-13T10:06:10;21.40;58.50
3548;DHT22;1788;49.400;11.092;2022-09-13T10:08:35;21.50;58.50
3548;DHT22;1788;49.400;11.092;2022-09-13T10:11:01;21.50;58.40
3548;DHT22;1788;49.400;11.092;2022-09-13T10:13:28;21.50;58.20
3548;DHT22;1788;49.400;11.092;2022-09-13T10:18:21;21.50;58.00
3548;DHT22;1788;49.400;11.092;2022-09-13T10:23:16;21.60;58.00
3548;DHT22;1788;49.400;11.092;2022-09-13T10:25:41;21.60;58.00
3548;DHT22;1788;49.400;11.092;2022-09-13T10:33:02;21.60;58.20
3548;DHT22;1788;49.400;11.092;2022-09-13T10:35:30;21.60;58.20
3548;DHT22;1788;49.400;11.092;2022-09-13T10:37:59;21.60;58.10
3548;DHT22;1788;49.400;11.092;2022-09-13T10:42:52;21.70;58.30
3548;DHT22;1788;49.400;11.092;2022-09-13T10:47:46;21.70;58.20
3548;DHT22;1788;49.400;11.092;2022-09-13T11:00:00;21.80;57.90
3548;DHT22;1788;49.400;11.092;2022-09-13T11:07:24;22.00;57.50
3548;DHT22;1788;49.400;11.092;2022-09-13T11:09:50;22.30;57.00
3548;DHT22;1788;49.400;11.092;2022-09-13T11:17:12;22.60;56.60
3548;DHT22;1788;49.400;11.092;2022-09-13T11:24:31;22.90;56.30
3548;DHT22;1788;49.400;11.092;2022-09-13T11:26:57;22.90;56.20
3548;DHT22;1788;49.400;11.092;2022-09-13T11:39:12;23.20;55.60
3548;DHT22;1788;49.400;11.092;2022-09-13T11:44:10;23.30;55.60
3548;DHT22;1788;49.400;11.092;2022-09-13T11:56:19;23.40;55.30
3548;DHT22;1788;49.400;11.092;2022-09-13T12:01:10;23.30;55.40
3548;DHT22;1788;49.400;11.092;2022-09-13T12:08:31;23.20;55.50
3548;DHT22;1788;49.400;11.092;2022-09-13T12:11:01;23.20;56.10
3548;DHT22;1788;49.400;11.092;2022-09-13T12:13:26;23.20;56.00
3548;DHT22;1788;49.400;11.092;2022-09-13T12:15:52;23.20;56.10
3548;DHT22;1788;49.400;11.092;2022-09-13T12:18:19;23.10;56.10
3548;DHT22;1788;49.400;11.092;2022-09-13T12:20:47;23.10;56.10
3548;DHT22;1788;49.400;11.092;2022-09-13T12:23:14;23.00;56.20
3548;DHT22;1788;49.400;11.092;2022-09-13T12:28:09;22.90;56.60
3548;DHT22;1788;49.400;11.092;2022-09-13T12:32:58;22.90;56.80
3548;DHT22;1788;49.400;11.092;2022-09-13T12:37:57;22.80;56.90
3548;DHT22;1788;49.400;11.092;2022-09-13T12:45:16;22.80;57.10
3548;DHT22;1788;49.400;11.092;2022-09-13T13:04:49;23.00;57.50
3548;DHT22;1788;49.400;11.092;2022-09-13T13:09:43;23.00;57.60
3548;DHT22;1788;49.400;11.092;2022-09-13T13:19:30;23.00;57.80
3548;DHT22;1788;49.400;11.092;2022-09-13T13:21:56;23.10;57.90
3548;DHT22;1788;49.400;11.092;2022-09-13T13:39:02;23.20;58.30
3548;DHT22;1788;49.400;11.092;2022-09-13T13:43:55;23.30;58.20
3548;DHT22;1788;49.400;11.092;2022-09-13T13:46:22;23.30;58.20
3548;DHT22;1788;49.400;11.092;2022-09-13T13:48:49;23.30;58.70
3548;DHT22;1788;49.400;11.092;2022-09-13T13:51:17;23.30;58.30
3548;DHT22;1788;49.400;11.092;2022-09-13T13:53:45;23.30;58.40
3548;DHT22;1788;49.400;11.092;2022-09-13T13:58:41;23.30;58.10
3548;DHT22;1788;49.400;11.092;2022-09-13T14:01:02;23.30;58.20
3548;DHT22;1788;49.400;11.092;2022-09-13T14:10:53;23.40;58.50
3548;DHT22;1788;49.400;11.092;2022-09-13T14:20:37;23.40;58.70
3548;DHT22;1788;49.400;11.092;2022-09-13T14:25:31;23.40;58.80
3548;DHT22;1788;49.400;11.092;2022-09-13T14:27:58;23.40;58.80
3548;DHT22;1788;49.400;11.092;2022-09-13T14:30:26;23.40;58.80
3548;DHT22;1788;49.400;11.092;2022-09-13T14:32:52;23.50;58.80
3548;DHT22;1788;49.400;11.092;2022-09-13T14:37:45;23.50;58.60
3548;DHT22;1788;49.400;11.092;2022-09-13T14:42:40;23.60;58.40
3548;DHT22;1788;49.400;11.092;2022-09-13T14:45:09;23.60;58.40
3548;DHT22;1788;49.400;11.092;2022-09-13T14:47:34;23.60;58.10
3548;DHT22;1788;49.400;11.092;2022-09-13T14:54:53;23.70;58.00
3548;DHT22;1788;49.400;11.092;2022-09-13T14:59:49;23.70;57.60
3548;DHT22;1788;49.400;11.092;2022-09-13T15:02:17;23.80;57.50
3548;DHT22;1788;49.400;11.092;2022-09-13T15:04:42;23.90;57.50
3548;DHT22;1788;49.400;11.092;2022-09-13T15:07:15;23.90;57.50
3548;DHT22;1788;49.400;11.092;2022-09-13T15:09:35;23.90;57.40
3548;DHT22;1788;49.400;11.092;2022-09-13T15:12:01;24.00;57.20
3548;DHT22;1788;49.400;11.092;2022-09-13T15:19:27;23.90;57.60
3548;DHT22;1788;49.400;11.092;2022-09-13T15:21:49;23.90;57.10
3548;DHT22;1788;49.400;11.092;2022-09-13T15:26:43;24.00;57.30
3548;DHT22;1788;49.400;11.092;2022-09-13T15:29:12;24.10;57.20
3548;DHT22;1788;49.400;11.092;2022-09-13T15:31:37;24.10;57.10
3548;DHT22;1788;49.400;11.092;2022-09-13T15:36:30;24.10;56.90
3548;DHT22;1788;49.400;11.092;2022-09-13T15:41:27;24.20;56.80
3548;DHT22;1788;49.400;11.092;2022-09-13T15:43:51;24.30;57.00
3548;DHT22;1788;49.400;11.092;2022-09-13T15:46:17;24.30;57.00
3548;DHT22;1788;49.400;11.092;2022-09-13T15:51:11;24.20;57.00
3548;DHT22;1788;49.400;11.092;2022-09-13T15:53:38;24.30;57.70
3548;DHT22;1788;49.400;11.092;2022-09-13T15:56:04;24.20;57.20
3548;DHT22;1788;49.400;11.092;2022-09-13T15:58:30;24.20;57.20
3548;DHT22;1788;49.400;11.092;2022-09-13T16:00:57;24.30;57.20
3548;DHT22;1788;49.400;11.092;2022-09-13T16:03:23;24.20;57.10
3548;DHT22;1788;49.400;11.092;2022-09-13T16:05:51;24.20;57.20
3548;DHT22;1788;49.400;11.092;2022-09-13T16:08:17;24.20;57.20
3548;DHT22;1788;49.400;11.092;2022-09-13T16:10:45;24.10;57.70
3548;DHT22;1788;49.400;11.092;2022-09-13T16:13:11;24.10;57.20
3548;DHT22;1788;49.400;11.092;2022-09-13T16:15:38;24.10;57.20
3548;DHT22;1788;49.400;11.092;2022-09-13T16:18:05;24.00;57.00
3548;DHT22;1788;49.400;11.092;2022-09-13T16:20:32;24.00;57.00
3548;DHT22;1788;49.400;11.092;2022-09-13T16:22:58;24.00;57.10
3548;DHT22;1788;49.400;11.092;2022-09-13T16:25:25;24.00;57.30
3548;DHT22;1788;49.400;11.092;2022-09-13T16:27:51;23.90;57.40
3548;DHT22;1788;49.400;11.092;2022-09-13T16:30:18;23.90;57.60
3548;DHT22;1788;49.400;11.092;2022-09-13T16:32:45;23.80;58.00
3548;DHT22;1788;49.400;11.092;2022-09-13T16:35:12;23.80;58.00
3548;DHT22;1788;49.400;11.092;2022-09-13T16:37:39;23.70;58.30
3548;DHT22;1788;49.400;11.092;2022-09-13T16:40:06;23.70;58.30
3548;DHT22;1788;49.400;11.092;2022-09-13T16:42:33;23.70;58.50
3548;DHT22;1788;49.400;11.092;2022-09-13T16:44:59;23.60;58.60
3548;DHT22;1788;49.400;11.092;2022-09-13T16:47:26;23.60;58.80
3548;DHT22;1788;49.400;11.092;2022-09-13T16:49:53;23.60;59.10
3548;DHT22;1788;49.400;11.092;2022-09-13T16:52:20;23.50;59.10
3548;DHT22;1788;49.400;11.092;2022-09-13T16:54:46;23.50;59.20
3548;DHT22;1788;49.400;11.092;2022-09-13T16:57:13;23.50;59.50
3548;DHT22;1788;49.400;11.092;2022-09-13T16:59:40;23.50;59.40
3548;DHT22;1788;49.400;11.092;2022-09-13T17:02:08;23.40;59.40
3548;DHT22;1788;49.400;11.092;2022-09-13T17:04:33;23.40;59.60
3548;DHT22;1788;49.400;11.092;2022-09-13T17:07:00;23.30;59.70
3548;DHT22;1788;49.400;11.092;2022-09-13T17:09:26;23.30;59.90
3548;DHT22;1788;49.400;11.092;2022-09-13T17:11:53;23.30;60.10
3548;DHT22;1788;49.400;11.092;2022-09-13T17:14:19;23.20;60.10
3548;DHT22;1788;49.400;11.092;2022-09-13T17:16:48;23.20;60.20
3548;DHT22;1788;49.400;11.092;2022-09-13T17:19:15;23.20;60.40
3548;DHT22;1788;49.400;11.092;2022-09-13T17:21:40;23.10;60.50
3548;DHT22;1788;49.400;11.092;2022-09-13T17:24:07;23.10;60.80
3548;DHT22;1788;49.400;11.092;2022-09-13T17:26:34;23.10;61.10
3548;DHT22;1788;49.400;11.092;2022-09-13T17:29:00;23.00;61.20
3548;DHT22;1788;49.400;11.092;2022-09-13T17:31:27;23.00;61.30
3548;DHT22;1788;49.400;11.092;2022-09-13T17:33:54;23.00;61.60
3548;DHT22;1788;49.400;11.092;2022-09-13T17:36:21;22.90;62.40
3548;DHT22;1788;49.400;11.092;2022-09-13T17:38:48;22.90;61.80
3548;DHT22;1788;49.400;11.092;2022-09-13T17:41:17;22.90;62.00
3548;DHT22;1788;49.400;11.092;2022-09-13T17:43:42;22.80;62.20
3548;DHT22;1788;49.400;11.092;2022-09-13T17:48:36;22.80;62.70
3548;DHT22;1788;49.400;11.092;2022-09-13T17:51:05;22.70;62.90
3548;DHT22;1788;49.400;11.092;2022-09-13T17:53:30;22.70;62.90
3548;DHT22;1788;49.400;11.092;2022-09-13T17:55:57;22.70;63.10
3548;DHT22;1788;49.400;11.092;2022-09-13T17:58:24;22.70;63.20
3548;DHT22;1788;49.400;11.092;2022-09-13T18:00:50;22.60;63.10
3548;DHT22;1788;49.400;11.092;2022-09-13T18:03:17;22.60;63.50
3548;DHT22;1788;49.400;11.092;2022-09-13T18:05:44;22.60;63.50
3548;DHT22;1788;49.400;11.092;2022-09-13T18:08:11;22.50;63.70
3548;DHT22;1788;49.400;11.092;2022-09-13T18:10:38;22.50;63.70
3548;DHT22;1788;49.400;11.092;2022-09-13T18:13:06;22.40;64.00
3548;DHT22;1788;49.400;11.092;2022-09-13T18:15:33;22.50;64.20
3548;DHT22;1788;49.400;11.092;2022-09-13T18:17:59;22.40;64.20
3548;DHT22;1788;49.400;11.092;2022-09-13T18:20:26;22.40;64.30
3548;DHT22;1788;49.400;11.092;2022-09-13T18:22:53;22.40;64.60
3548;DHT22;1788;49.400;11.092;2022-09-13T18:25:19;22.30;64.60
3548;DHT22;1788;49.400;11.092;2022-09-13T18:27:46;22.30;64.70
3548;DHT22;1788;49.400;11.092;2022-09-13T18:30:12;22.30;64.90
3548;DHT22;1788;49.400;11.092;2022-09-13T18:32:39;22.30;65.00
3548;DHT22;1788;49.400;11.092;2022-09-13T18:35:06;22.30;65.10
3548;DHT22;1788;49.400;11.092;2022-09-13T18:37:32;22.20;65.10
3548;DHT22;1788;49.400;11.092;2022-09-13T18:39:59;22.20;65.20
3548;DHT22;1788;49.400;11.092;2022-09-13T18:42:25;22.20;65.40
3548;DHT22;1788;49.400;11.092;2022-09-13T18:44:52;22.10;65.40
3548;DHT22;1788;49.400;11.092;2022-09-13T18:47:19;22.10;65.60
3548;DHT22;1788;49.400;11.092;2022-09-13T18:49:45;22.10;65.80
3548;DHT22;1788;49.400;11.092;2022-09-13T18:52:13;22.00;65.90
3548;DHT22;1788;49.400;11.092;2022-09-13T18:54:39;22.00;65.90
3548;DHT22;1788;49.400;11.092;2022-09-13T18:57:07;22.00;66.20
3548;DHT22;1788;49.400;11.092;2022-09-13T18:59:34;22.00;66.20
3548;DHT22;1788;49.400;11.092;2022-09-13T19:02:01;22.00;66.40
3548;DHT22;1788;49.400;11.092;2022-09-13T19:04:28;21.90;66.30
3548;DHT22;1788;49.400;11.092;2022-09-13T19:06:55;21.90;66.30
3548;DHT22;1788;49.400;11.092;2022-09-13T19:09:22;21.90;66.40
3548;DHT22;1788;49.400;11.092;2022-09-13T19:11:49;21.90;67.00
3548;DHT22;1788;49.400;11.092;2022-09-13T19:14:16;21.90;66.60
3548;DHT22;1788;49.400;11.092;2022-09-13T19:16:41;21.90;66.60
3548;DHT22;1788;49.400;11.092;2022-09-13T19:19:08;21.90;66.70
3548;DHT22;1788;49.400;11.092;2022-09-13T19:21:35;21.80;66.60
3548;DHT22;1788;49.400;11.092;2022-09-13T19:24:01;21.80;66.70
3548;DHT22;1788;49.400;11.092;2022-09-13T19:26:30;21.70;66.90
3548;DHT22;1788;49.400;11.092;2022-09-13T19:28:57;21.70;66.90
3548;DHT22;1788;49.400;11.092;2022-09-13T19:31:23;21.70;67.20
3548;DHT22;1788;49.400;11.092;2022-09-13T19:33:49;21.70;67.10
3548;DHT22;1788;49.400;11.092;2022-09-13T19:36:17;21.70;67.40
3548;DHT22;1788;49.400;11.092;2022-09-13T19:38:43;21.70;67.40
3548;DHT22;1788;49.400;11.092;2022-09-13T19:43:37;21.70;67.50
3548;DHT22;1788;49.400;11.092;2022-09-13T19:46:05;21.60;67.40
3548;DHT22;1788;49.400;11.092;2022-09-13T19:48:30;21.60;67.50
3548;DHT22;1788;49.400;11.092;2022-09-13T19:53:23;21.60;67.70
3548;DHT22;1788;49.400;11.092;2022-09-13T19:55:50;21.50;67.60
3548;DHT22;1788;49.400;11.092;2022-09-13T19:58:17;21.50;67.80
3548;DHT22;1788;49.400;11.092;2022-09-13T20:00:44;21.50;67.80
3548;DHT22;1788;49.400;11.092;2022-09-13T20:03:11;21.40;67.90
3548;DHT22;1788;49.400;11.092;2022-09-13T20:05:38;21.40;67.90
3548;DHT22;1788;49.400;11.092;2022-09-13T20:08:05;21.30;67.90
3548;DHT22;1788;49.400;11.092;2022-09-13T20:10:32;21.30;67.90
3548;DHT22;1788;49.400;11.092;2022-09-13T20:12:59;21.30;68.00
3548;DHT22;1788;49.400;11.092;2022-09-13T20:15:26;21.20;67.90
3548;DHT22;1788;49.400;11.092;2022-09-13T20:20:20;21.20;68.10
3548;DHT22;1788;49.400;11.092;2022-09-13T20:22:47;21.10;68.00
3548;DHT22;1788;49.400;11.092;2022-09-13T20:25:13;21.10;68.10
3548;DHT22;1788;49.400;11.092;2022-09-13T20:27:40;21.10;68.20
3548;DHT22;1788;49.400;11.092;2022-09-13T20:32:34;21.00;68.20
3548;DHT22;1788;49.400;11.092;2022-09-13T20:35:01;21.00;68.20
3548;DHT22;1788;49.400;11.092;2022-09-13T20:37:27;20.90;68.10
3548;DHT22;1788;49.400;11.092;2022-09-13T20:39:54;20.90;68.10
3548;DHT22;1788;49.400;11.092;2022-09-13T20:42:21;20.80;68.20
3548;DHT22;1788;49.400;11.092;2022-09-13T20:44:48;20.80;68.20